Blaine, Kentucky
Current Conditions -  °F | °C
As of 1:15 AM on Sunday 23 Nov 2014 (Local Time) from KSJS Reporting Station
Overcast Overcast  
Wind Chill: 51°   Ceiling: 9000
Heat Index: 51°   Visibility: 10mi
Dew Point: 26°   Wind: 3mph
Humidity: 38%   Direction: 150°SSE
Pressure: 30.12"   Gusts: NA
Location:  38.03°N, 82.84°W
Report Text: KSJS 230615Z AUTO 15003KT 10SM OVC090 11/M03 A3012 RMK AO2 T01071033
Loading
Personal Weather Stations






























Interactive Weather Map New forecast layout! Learn more

10-Day Weather Forecast

Advertisements
Track Severe Weather on mobile